Time,TemperatureF,DewpointF,PressureIn,WindDirection,WindDirectionDegrees,WindSpeedMPH,WindSpeedGustMPH,Humidity,HourlyPrecipIn,Conditions,Clouds,dailyrainin,SoftwareType,DateUTC
2013-08-19 18:48:00,74.2,66.9,30.05,NNE,23,0.0,0.0,78,0.00,,,0.00,WUHU216HW,2013-08-19 22:48:00,
2013-08-19 18:49:00,74.2,66.9,30.05,NNE,23,0.0,0.0,78,0.00,,,0.00,WUHU216HW,2013-08-19 22:49:00,
2013-08-19 18:54:00,73.8,66.6,30.05,North,0,1.3,1.3,78,0.00,,,0.00,WUHU216HW,2013-08-19 22:54:00,
2013-08-19 18:59:00,73.8,66.6,30.05,North,0,0.4,1.3,78,0.00,,,0.00,WUHU216HW,2013-08-19 22:59:00,
2013-08-19 19:04:00,73.8,66.6,30.05,NNE,23,0.9,1.8,78,0.00,,,0.00,WUHU216HW,2013-08-19 23:04:00,
2013-08-19 19:10:00,73.6,66.4,30.06,North,0,0.9,1.8,78,0.00,,,0.00,WUHU216HW,2013-08-19 23:10:00,
2013-08-19 19:15:00,73.4,66.3,30.06,North,0,0.4,1.1,78,0.00,,,0.00,WUHU216HW,2013-08-19 23:15:00,
2013-08-19 19:20:00,73.4,66.6,30.06,NNE,23,0.4,0.9,79,0.00,,,0.00,WUHU216HW,2013-08-19 23:20:00,
2013-08-19 19:25:00,73.3,66.4,30.05,NNE,23,0.9,0.9,79,0.00,,,0.00,WUHU216HW,2013-08-19 23:25:00,
2013-08-19 19:30:00,73.1,66.3,30.06,NNE,23,2.0,2.0,79,0.00,,,0.00,WUHU216HW,2013-08-19 23:30:00,
2013-08-19 19:35:00,73.1,66.3,30.06,NNW,338,1.1,2.0,79,0.00,,,0.00,WUHU216HW,2013-08-19 23:35:00,
2013-08-19 19:40:00,72.7,65.9,30.06,NE,45,0.2,2.0,79,0.00,,,0.00,WUHU216HW,2013-08-19 23:40:00,
2013-08-19 19:45:00,72.7,66.2,30.06,NNE,23,0.4,1.1,80,0.00,,,0.00,WUHU216HW,2013-08-19 23:45:00,
2013-08-19 19:50:00,72.5,66.1,30.06,North,0,0.0,0.9,80,0.00,,,0.00,WUHU216HW,2013-08-19 23:50:00,
2013-08-19 19:55:00,72.4,65.5,30.06,NNE,23,1.1,1.1,79,0.00,,,0.00,WUHU216HW,2013-08-19 23:55:00,
2013-08-19 20:00:00,72.4,65.5,30.06,NNE,23,0.0,1.1,79,0.00,,,0.00,WUHU216HW,2013-08-20 00:00:00,
2013-08-19 20:06:00,72.2,65.7,30.06,NNW,338,0.0,1.1,80,0.00,,,0.00,WUHU216HW,2013-08-20 00:06:00,
2013-08-19 20:11:00,72.0,65.5,30.06,North,0,0.4,0.4,80,0.00,,,0.00,WUHU216HW,2013-08-20 00:11:00,
2013-08-19 20:16:00,71.8,65.3,30.06,North,0,0.0,0.4,80,0.00,,,0.00,WUHU216HW,2013-08-20 00:16:00,
2013-08-19 20:21:00,71.6,65.2,30.06,NNW,338,1.1,1.1,80,0.00,,,0.00,WUHU216HW,2013-08-20 00:21:00,
2013-08-19 20:26:00,71.6,65.2,30.06,North,0,0.0,1.8,80,0.00,,,0.00,WUHU216HW,2013-08-20 00:26:00,
2013-08-19 20:31:00,71.5,65.0,30.06,NNE,23,0.0,1.8,80,0.00,,,0.00,WUHU216HW,2013-08-20 00:31:00,
2013-08-19 20:36:00,71.3,64.8,30.06,WNW,293,0.0,0.2,80,0.00,,,0.00,WUHU216HW,2013-08-20 00:36:00,
2013-08-19 20:41:00,71.1,65.0,30.06,NNE,23,0.9,1.3,81,0.00,,,0.00,WUHU216HW,2013-08-20 00:41:00,
2013-08-19 20:46:00,70.9,64.8,30.06,NNE,23,0.4,1.3,81,0.00,,,0.00,WUHU216HW,2013-08-20 00:46:00,
2013-08-19 20:51:00,70.9,64.8,30.06,NNE,23,0.0,1.3,81,0.00,,,0.00,WUHU216HW,2013-08-20 00:51:00,
2013-08-19 20:57:00,70.7,64.6,30.06,North,0,0.0,0.9,81,0.00,,,0.00,WUHU216HW,2013-08-20 00:57:00,
2013-08-19 21:02:00,70.6,64.5,30.06,North,0,0.2,0.9,81,0.00,,,0.00,WUHU216HW,2013-08-20 01:02:00,
2013-08-19 21:07:00,70.6,64.5,30.07,ENE,68,0.4,1.1,81,0.00,,,0.00,WUHU216HW,2013-08-20 01:07:00,
2013-08-19 21:12:00,70.6,64.8,30.07,North,0,1.3,1.8,82,0.00,,,0.00,WUHU216HW,2013-08-20 01:12:00,
2013-08-19 21:17:00,70.6,64.8,30.08,North,0,0.0,1.8,82,0.00,,,0.00,WUHU216HW,2013-08-20 01:17:00,
2013-08-19 21:22:00,70.6,64.8,30.08,North,0,0.0,1.1,82,0.00,,,0.00,WUHU216HW,2013-08-20 01:22:00,
2013-08-19 21:27:00,70.6,64.8,30.08,North,0,0.0,1.1,82,0.00,,,0.00,WUHU216HW,2013-08-20 01:27:00,
2013-08-19 21:32:00,70.6,64.8,30.08,North,0,0.7,0.7,82,0.00,,,0.00,WUHU216HW,2013-08-20 01:32:00,
2013-08-19 21:37:00,70.6,64.8,30.08,WNW,293,0.0,0.7,82,0.00,,,0.00,WUHU216HW,2013-08-20 01:37:00,
2013-08-19 21:42:00,70.7,65.0,30.08,NE,45,1.1,1.1,82,0.00,,,0.00,WUHU216HW,2013-08-20 01:42:00,
2013-08-19 21:47:00,70.9,65.2,30.08,West,270,0.4,1.1,82,0.00,,,0.00,WUHU216HW,2013-08-20 01:47:00,
2013-08-19 21:52:00,70.9,65.2,30.08,WSW,248,0.0,1.1,82,0.00,,,0.00,WUHU216HW,2013-08-20 01:52:00,
2013-08-19 21:58:00,70.9,65.2,30.08,North,0,0.0,0.4,82,0.00,,,0.00,WUHU216HW,2013-08-20 01:58:00,
2013-08-19 22:03:00,70.9,65.2,30.08,NNW,338,1.1,1.1,82,0.00,,,0.00,WUHU216HW,2013-08-20 02:03:00,
2013-08-19 22:08:00,70.9,65.2,30.08,North,0,0.0,1.3,82,0.00,,,0.00,WUHU216HW,2013-08-20 02:08:00,
2013-08-19 22:13:00,70.7,65.0,30.08,North,0,1.1,1.6,82,0.00,,,0.00,WUHU216HW,2013-08-20 02:13:00,
2013-08-19 22:18:00,70.6,64.8,30.08,North,0,0.0,1.6,82,0.00,,,0.00,WUHU216HW,2013-08-20 02:18:00,
2013-08-19 22:23:00,70.6,64.8,30.08,East,90,0.0,0.0,82,0.00,,,0.00,WUHU216HW,2013-08-20 02:23:00,
2013-08-19 22:28:00,70.2,64.5,30.08,East,90,0.0,0.0,82,0.00,,,0.00,WUHU216HW,2013-08-20 02:28:00,
2013-08-19 22:33:00,70.0,64.3,30.08,East,90,0.0,0.0,82,0.00,,,0.00,WUHU216HW,2013-08-20 02:33:00,
2013-08-19 22:38:00,69.8,64.1,30.08,East,90,0.0,0.0,82,0.00,,,0.00,WUHU216HW,2013-08-20 02:38:00,
2013-08-19 22:43:00,69.5,64.1,30.09,East,90,0.0,0.0,83,0.00,,,0.00,WUHU216HW,2013-08-20 02:43:00,
2013-08-19 22:48:00,69.3,63.9,30.08,East,90,0.0,0.0,83,0.00,,,0.00,WUHU216HW,2013-08-20 02:48:00,
2013-08-19 22:54:00,69.3,64.3,30.08,East,90,0.0,0.0,84,0.00,,,0.00,WUHU216HW,2013-08-20 02:54:00,
2013-08-19 22:59:00,69.3,64.3,30.09,East,90,0.0,0.0,84,0.00,,,0.00,WUHU216HW,2013-08-20 02:59:00,
2013-08-19 23:04:00,69.5,64.4,30.08,North,0,0.0,0.0,84,0.00,,,0.00,WUHU216HW,2013-08-20 03:04:00,
2013-08-19 23:09:00,69.5,64.4,30.09,North,0,0.0,0.4,84,0.00,,,0.00,WUHU216HW,2013-08-20 03:09:00,
2013-08-19 23:14:00,69.5,64.4,30.09,North,0,0.0,0.4,84,0.00,,,0.00,WUHU216HW,2013-08-20 03:14:00,
2013-08-19 23:19:00,69.5,64.4,30.09,North,0,0.0,0.0,84,0.00,,,0.00,WUHU216HW,2013-08-20 03:19:00,
2013-08-19 23:24:00,69.7,64.5,30.09,North,0,0.0,0.4,84,0.00,,,0.00,WUHU216HW,2013-08-20 03:24:00,
2013-08-19 23:29:00,69.8,64.7,30.09,North,0,0.0,0.4,84,0.00,,,0.00,WUHU216HW,2013-08-20 03:29:00,
2013-08-19 23:34:00,69.8,64.7,30.09,North,0,0.0,0.0,84,0.00,,,0.00,WUHU216HW,2013-08-20 03:34:00,
2013-08-19 23:39:00,69.8,64.7,30.09,North,0,0.0,0.0,84,0.00,,,0.00,WUHU216HW,2013-08-20 03:39:00,
2013-08-19 23:45:00,70.0,64.9,30.09,North,0,0.0,0.0,84,0.00,,,0.00,WUHU216HW,2013-08-20 03:45:00,
2013-08-19 23:50:00,70.0,64.9,30.09,North,0,0.0,0.0,84,0.00,,,0.00,WUHU216HW,2013-08-20 03:50:00,
2013-08-19 23:55:00,70.0,64.9,30.09,North,0,0.0,0.0,84,0.00,,,0.00,WUHU216HW,2013-08-20 03:55:00,